Time;durP1;ratioP1;P1;durP2;ratioP2;P2;SDS_P1;SDS_P2;PMS_P1;PMS_P2;Temp;Humidity;BMP_temperature;BMP_pressure;BME280_temperature;BME280_humidity;BME280_pressure;Samples;Min_cycle;Max_cycle;Signal;HPM_P1;HPM_P2
2024/03/15 00:00:06;;;;;;;0.30;0.22;;;14.80;99.90;;;;;;4163821;28;20083;-56
2024/03/15 00:02:08;;;;;;;0.85;0.65;;;14.80;99.90;;;;;;4163969;28;20052;-56
2024/03/15 00:04:11;;;;;;;0.20;0.20;;;14.80;99.90;;;;;;4163367;28;20053;-56
2024/03/15 00:06:17;;;;;;;0.25;0.20;;;14.80;99.90;;;;;;4163571;28;20045;-56
2024/03/15 00:08:19;;;;;;;2.60;0.35;;;14.80;99.90;;;;;;4164298;28;20216;-56
2024/03/15 00:10:21;;;;;;;0.10;0.10;;;14.80;99.90;;;;;;4165029;28;20539;-55
2024/03/15 00:12:23;;;;;;;0.20;0.20;;;14.70;99.90;;;;;;4163412;28;20128;-56
2024/03/15 00:14:26;;;;;;;0.32;0.32;;;14.80;99.90;;;;;;4163792;28;20054;-55
2024/03/15 00:16:29;;;;;;;0.50;0.20;;;14.80;99.90;;;;;;4163460;28;20041;-55
2024/03/15 00:18:33;;;;;;;0.22;0.20;;;14.70;99.90;;;;;;4163074;28;20084;-56
2024/03/15 00:20:36;;;;;;;0.57;0.30;;;14.70;99.90;;;;;;4163650;28;20049;-56
2024/03/15 00:22:38;;;;;;;1.13;0.40;;;14.80;99.90;;;;;;4163104;28;20049;-55
2024/03/15 00:24:41;;;;;;;0.60;0.28;;;14.70;99.90;;;;;;4163206;28;20045;-55
2024/03/15 00:26:44;;;;;;;1.63;0.20;;;14.70;99.90;;;;;;4163537;28;20467;-56
2024/03/15 00:28:47;;;;;;;0.68;0.55;;;14.70;99.90;;;;;;4164698;28;20045;-57
2024/03/15 00:30:49;;;;;;;0.70;0.20;;;14.70;99.90;;;;;;4164788;28;20080;-56
2024/03/15 00:32:52;;;;;;;0.50;0.40;;;14.70;99.90;;;;;;4163435;28;20045;-55
2024/03/15 00:34:54;;;;;;;0.13;0.10;;;14.70;99.90;;;;;;4162642;28;20053;-56
2024/03/15 00:36:57;;;;;;;2.67;0.30;;;14.70;99.90;;;;;;4163192;28;20109;-56
2024/03/15 00:38:59;;;;;;;0.25;0.22;;;14.70;99.90;;;;;;4162877;28;20075;-57
2024/03/15 00:41:02;;;;;;;0.40;0.38;;;14.70;99.90;;;;;;4162946;28;20057;-55
2024/03/15 00:43:04;;;;;;;0.75;0.60;;;14.70;99.90;;;;;;4162851;28;20046;-55
2024/03/15 00:45:06;;;;;;;0.95;0.40;;;14.60;99.90;;;;;;4162870;28;20054;-55
2024/03/15 00:47:09;;;;;;;0.17;0.17;;;14.70;99.90;;;;;;4163027;28;20049;-55
2024/03/15 00:49:12;;;;;;;0.40;0.22;;;14.70;99.90;;;;;;4146319;28;20402;-55
2024/03/15 00:51:14;;;;;;;0.20;0.20;;;14.70;99.90;;;;;;4163022;28;20041;-56
2024/03/15 00:53:16;;;;;;;1.25;0.20;;;14.70;99.90;;;;;;4163152;28;20064;-56
2024/03/15 00:55:19;;;;;;;0.20;0.20;;;14.70;99.90;;;;;;4162950;28;20072;-55
2024/03/15 00:57:21;;;;;;;0.30;0.20;;;14.70;99.90;;;;;;4163215;28;20497;-55
2024/03/15 00:59:23;;;;;;;0.22;0.20;;;14.70;99.90;;;;;;4163227;28;20501;-55
2024/03/15 01:01:26;;;;;;;0.22;0.20;;;14.70;99.90;;;;;;4163014;28;20092;-56
2024/03/15 01:03:29;;;;;;;0.75;0.38;;;14.60;99.90;;;;;;4161974;28;20445;-55
2024/03/15 01:05:31;;;;;;;0.73;0.32;;;14.60;99.90;;;;;;4146781;28;20076;-55
2024/03/15 01:07:33;;;;;;;0.40;0.30;;;14.60;99.90;;;;;;4163261;28;20047;-57
2024/03/15 01:09:36;;;;;;;1.20;0.88;;;14.60;99.90;;;;;;4163073;28;20536;-55
2024/03/15 01:11:39;;;;;;;0.93;0.43;;;14.60;99.90;;;;;;4162967;28;20500;-55
2024/03/15 01:13:42;;;;;;;0.30;0.28;;;14.60;99.90;;;;;;4163116;28;20710;-59
2024/03/15 01:15:44;;;;;;;0.30;0.20;;;14.70;99.90;;;;;;4162853;28;20046;-56
2024/03/15 01:17:47;;;;;;;0.20;0.10;;;14.60;99.90;;;;;;4162431;28;20049;-56
2024/03/15 01:19:49;;;;;;;1.85;0.45;;;14.60;99.90;;;;;;4162798;28;20046;-56
2024/03/15 01:21:52;;;;;;;0.38;0.20;;;14.60;99.90;;;;;;4162577;28;20055;-58
2024/03/15 01:23:54;;;;;;;0.40;0.30;;;14.60;99.90;;;;;;4162890;28;20045;-55
2024/03/15 01:25:57;;;;;;;0.65;0.65;;;14.60;99.90;;;;;;4162928;28;20084;-55
2024/03/15 01:27:59;;;;;;;0.30;0.20;;;14.60;99.90;;;;;;4162839;28;20050;-58
2024/03/15 01:30:02;;;;;;;0.95;0.60;;;14.50;99.90;;;;;;4163067;28;20492;-56
2024/03/15 01:32:04;;;;;;;0.40;0.20;;;14.50;99.90;;;;;;4162841;28;20452;-57
2024/03/15 01:34:07;;;;;;;0.10;0.10;;;14.50;99.90;;;;;;4145985;28;20490;-55
2024/03/15 01:36:09;;;;;;;0.82;0.20;;;14.50;99.90;;;;;;4145687;28;20072;-56
2024/03/15 01:38:11;;;;;;;0.20;0.15;;;14.50;99.90;;;;;;4162372;28;20053;-56
2024/03/15 01:40:15;;;;;;;0.10;0.10;;;14.50;99.90;;;;;;4162452;28;20057;-56
2024/03/15 01:42:17;;;;;;;1.42;0.20;;;14.50;99.90;;;;;;4146440;28;20100;-55
2024/03/15 01:44:19;;;;;;;1.38;1.10;;;14.50;99.90;;;;;;4162345;28;20532;-55
2024/03/15 01:46:23;;;;;;;1.85;0.10;;;14.50;99.90;;;;;;4161928;28;20045;-56
2024/03/15 01:48:25;;;;;;;0.63;0.20;;;14.50;99.90;;;;;;4162153;28;20049;-56
2024/03/15 01:50:28;;;;;;;0.98;0.28;;;14.50;99.90;;;;;;4162511;28;20466;-56
2024/03/15 01:52:32;;;;;;;0.32;0.10;;;14.50;99.90;;;;;;4162407;28;20191;-57
2024/03/15 01:54:35;;;;;;;0.47;0.20;;;14.50;99.90;;;;;;4162807;28;20073;-57
2024/03/15 01:56:37;;;;;;;0.25;0.20;;;14.50;99.90;;;;;;4164285;28;20049;-60
2024/03/15 01:58:39;;;;;;;0.57;0.22;;;14.50;99.90;;;;;;4162769;28;20045;-56
2024/03/15 02:00:41;;;;;;;0.45;0.25;;;14.50;99.90;;;;;;4161973;28;20073;-56
2024/03/15 02:02:44;;;;;;;1.40;0.22;;;14.50;99.90;;;;;;4162284;28;20053;-58
2024/03/15 02:04:53;;;;;;;0.10;0.10;;;14.50;99.90;;;;;;4162340;28;20045;-56
2024/03/15 02:06:56;;;;;;;0.20;0.10;;;14.50;99.90;;;;;;4162475;28;20049;-60
2024/03/15 02:08:58;;;;;;;0.30;0.30;;;14.50;99.90;;;;;;4162181;28;20084;-56
2024/03/15 02:11:01;;;;;;;0.93;0.10;;;14.50;99.90;;;;;;4162486;28;20496;-56
2024/03/15 02:13:04;;;;;;;0.10;0.10;;;14.50;99.90;;;;;;4162213;28;20197;-56
2024/03/15 02:15:07;;;;;;;0.10;0.10;;;14.50;99.90;;;;;;4164298;28;20463;-55
2024/03/15 02:17:09;;;;;;;0.30;0.20;;;14.50;99.90;;;;;;4165588;28;20045;-56
2024/03/15 02:19:11;;;;;;;1.08;0.40;;;14.50;99.90;;;;;;4165663;28;20583;-56
2024/03/15 02:21:13;;;;;;;0.15;0.15;;;14.50;99.90;;;;;;4165806;28;20046;-56
2024/03/15 02:23:16;;;;;;;5.07;0.57;;;14.50;99.90;;;;;;4165929;28;20052;-61
2024/03/15 02:25:18;;;;;;;0.08;0.08;;;14.50;99.90;;;;;;4165895;28;20073;-56
2024/03/15 02:27:20;;;;;;;0.57;0.40;;;14.50;99.90;;;;;;4165586;28;20652;-60
2024/03/15 02:29:25;;;;;;;0.10;0.10;;;14.50;99.90;;;;;;4165111;28;20067;-56
2024/03/15 02:31:27;;;;;;;0.20;0.20;;;14.50;99.90;;;;;;4149269;28;20072;-56
2024/03/15 02:33:30;;;;;;;0.10;0.10;;;14.50;99.90;;;;;;4165697;28;20068;-60
2024/03/15 02:35:33;;;;;;;0.20;0.20;;;14.50;99.90;;;;;;4165409;28;20169;-55
2024/03/15 02:37:38;;;;;;;0.43;0.20;;;14.50;99.90;;;;;;4165681;28;20149;-55
2024/03/15 02:39:40;;;;;;;0.15;0.15;;;14.50;99.90;;;;;;4165103;28;20073;-55
2024/03/15 02:41:46;;;;;;;0.30;0.30;;;14.50;99.90;;;;;;4165177;28;20069;-56
2024/03/15 02:43:48;;;;;;;0.20;0.13;;;14.50;99.90;;;;;;4165044;28;20085;-59
2024/03/15 02:45:50;;;;;;;0.13;0.03;;;14.50;99.90;;;;;;4165262;28;20099;-55
2024/03/15 02:47:52;;;;;;;0.10;0.05;;;14.50;99.90;;;;;;4164802;28;20095;-60
2024/03/15 02:49:56;;;;;;;2.22;0.28;;;14.50;99.90;;;;;;4165211;28;20112;-56
2024/03/15 02:51:58;;;;;;;0.75;0.50;;;14.50;99.90;;;;;;4165122;28;20077;-55
2024/03/15 02:54:00;;;;;;;0.43;0.20;;;14.40;99.90;;;;;;4165223;28;20124;-58
2024/03/15 02:56:03;;;;;;;0.43;0.20;;;14.40;99.90;;;;;;4164842;28;20133;-56
2024/03/15 02:58:07;;;;;;;0.13;0.13;;;14.40;99.90;;;;;;4164497;28;20532;-58
2024/03/15 03:00:10;;;;;;;0.13;0.13;;;14.40;99.90;;;;;;4148683;28;20050;-55
2024/03/15 03:02:14;;;;;;;0.00;0.00;;;14.40;99.90;;;;;;4164684;28;20041;-56
2024/03/15 03:04:18;;;;;;;0.30;0.30;;;14.40;99.90;;;;;;4165344;28;20053;-56
2024/03/15 03:06:21;;;;;;;0.35;0.10;;;14.40;99.90;;;;;;4165989;28;20077;-60
2024/03/15 03:08:24;;;;;;;0.20;0.10;;;14.40;99.90;;;;;;4165933;28;20386;-56
2024/03/15 03:10:27;;;;;;;0.17;0.17;;;14.40;99.90;;;;;;4164742;28;20137;-59
2024/03/15 03:12:29;;;;;;;0.13;0.13;;;14.40;99.90;;;;;;4164618;28;20042;-56
2024/03/15 03:14:33;;;;;;;0.17;0.10;;;14.40;99.90;;;;;;4164682;28;20116;-56
2024/03/15 03:16:36;;;;;;;1.30;0.20;;;14.40;99.90;;;;;;4164950;28;20485;-57
2024/03/15 03:18:38;;;;;;;0.10;0.10;;;14.40;99.90;;;;;;4164425;28;20042;-56
2024/03/15 03:20:41;;;;;;;0.10;0.10;;;14.40;99.90;;;;;;4164481;28;20141;-56
2024/03/15 03:22:43;;;;;;;0.10;0.10;;;14.40;99.90;;;;;;4164177;28;20049;-60
2024/03/15 03:24:46;;;;;;;0.10;0.10;;;14.40;99.90;;;;;;4164519;28;20045;-55
2024/03/15 03:26:50;;;;;;;0.90;0.80;;;14.40;99.90;;;;;;4163581;28;20144;-55
2024/03/15 03:28:52;;;;;;;0.10;0.10;;;14.30;99.90;;;;;;4164106;28;20045;-55
2024/03/15 03:30:54;;;;;;;0.20;0.10;;;14.30;99.90;;;;;;4164198;28;20088;-62
2024/03/15 03:32:57;;;;;;;0.13;0.10;;;14.30;99.90;;;;;;4164198;28;20057;-56
2024/03/15 03:35:01;;;;;;;0.20;0.10;;;14.30;99.90;;;;;;4164302;28;20056;-56
2024/03/15 03:37:03;;;;;;;0.20;0.17;;;14.20;99.90;;;;;;4164394;28;20045;-55
2024/03/15 03:39:05;;;;;;;0.20;0.20;;;14.20;99.90;;;;;;4164285;28;20100;-56
2024/03/15 03:41:08;;;;;;;0.35;0.10;;;14.20;99.90;;;;;;4164113;28;20051;-66
2024/03/15 03:43:11;;;;;;;0.30;0.10;;;14.20;99.90;;;;;;4164690;28;20128;-55
2024/03/15 03:45:16;;;;;;;0.00;0.00;;;14.20;99.90;;;;;;4164663;28;20048;-56
2024/03/15 03:47:19;;;;;;;0.75;0.63;;;14.20;99.90;;;;;;4164111;28;20540;-56
2024/03/15 03:49:22;;;;;;;0.20;0.20;;;14.20;99.90;;;;;;4164307;28;20541;-59
2024/03/15 03:51:25;;;;;;;1.30;0.15;;;14.20;99.90;;;;;;4164310;28;20049;-55
2024/03/15 03:53:30;;;;;;;0.45;0.20;;;14.20;99.90;;;;;;4164414;28;20385;-59
2024/03/15 03:55:33;;;;;;;0.03;0.03;;;14.20;99.90;;;;;;4164639;28;20497;-60
2024/03/15 03:57:38;;;;;;;0.25;0.13;;;14.30;99.90;;;;;;4164005;28;20041;-56
2024/03/15 03:59:47;;;;;;;0.00;0.00;;;14.20;99.90;;;;;;4163884;28;20084;-55
2024/03/15 04:01:50;;;;;;;0.10;0.10;;;14.20;99.90;;;;;;4163818;28;20045;-57
2024/03/15 04:03:52;;;;;;;0.20;0.10;;;14.20;99.90;;;;;;4163914;28;20433;-56
2024/03/15 04:05:54;;;;;;;0.70;0.20;;;14.20;99.90;;;;;;4164795;28;20049;-60
2024/03/15 04:07:57;;;;;;;0.10;0.10;;;14.20;99.90;;;;;;4165545;28;20052;-58
2024/03/15 04:09:59;;;;;;;0.10;0.10;;;14.30;99.90;;;;;;4164816;28;20056;-58
2024/03/15 04:12:01;;;;;;;0.05;0.05;;;14.30;99.90;;;;;;4164353;28;20065;-56
2024/03/15 04:14:03;;;;;;;0.10;0.10;;;14.20;99.90;;;;;;4164526;28;20506;-55
2024/03/15 04:16:07;;;;;;;0.05;0.05;;;14.30;99.90;;;;;;4148025;28;20046;-57
2024/03/15 04:18:09;;;;;;;0.15;0.03;;;14.30;99.90;;;;;;4165047;28;20049;-58
2024/03/15 04:20:16;;;;;;;0.05;0.05;;;14.20;99.90;;;;;;4165239;28;20053;-56
2024/03/15 04:22:18;;;;;;;0.00;0.00;;;14.20;99.90;;;;;;4165300;28;20427;-56
2024/03/15 04:24:21;;;;;;;0.10;0.10;;;14.20;99.90;;;;;;4164869;28;20065;-57
2024/03/15 04:26:26;;;;;;;0.45;0.10;;;14.20;99.90;;;;;;4164635;28;20072;-60
2024/03/15 04:28:28;;;;;;;0.22;0.10;;;14.20;99.90;;;;;;4165187;28;20049;-55
2024/03/15 04:30:31;;;;;;;0.50;0.20;;;14.20;99.90;;;;;;4164595;28;20080;-56
2024/03/15 04:32:34;;;;;;;0.52;0.38;;;14.20;99.90;;;;;;4165126;28;20088;-68
2024/03/15 04:34:40;;;;;;;0.00;0.00;;;14.20;99.90;;;;;;4164599;28;20084;-57
2024/03/15 04:36:43;;;;;;;0.55;0.55;;;14.30;99.90;;;;;;4164813;28;20042;-62
2024/03/15 04:38:45;;;;;;;0.47;0.10;;;14.30;99.90;;;;;;4164074;28;20052;-56
2024/03/15 04:40:47;;;;;;;0.00;0.00;;;14.30;99.90;;;;;;4164321;28;20054;-65
2024/03/15 04:42:50;;;;;;;9.40;1.15;;;14.20;99.90;;;;;;4165085;28;20045;-55
2024/03/15 04:44:52;;;;;;;0.15;0.15;;;14.20;99.90;;;;;;4147797;28;20068;-56
2024/03/15 04:46:54;;;;;;;0.00;0.00;;;14.20;99.90;;;;;;4147490;28;20128;-56
2024/03/15 04:48:56;;;;;;;0.13;0.10;;;14.30;99.90;;;;;;4147707;28;20501;-59
2024/03/15 04:51:02;;;;;;;0.00;0.00;;;14.20;99.90;;;;;;4163884;28;20100;-55
2024/03/15 04:53:04;;;;;;;;;;;14.20;99.90;;;;;;4164727;28;20049;-55
2024/03/15 04:55:08;;;;;;;0.10;0.10;;;14.20;99.90;;;;;;4163111;28;19921;-57
2024/03/15 04:57:11;;;;;;;0.43;0.30;;;14.20;99.90;;;;;;4163933;28;20060;-55
2024/03/15 04:59:14;;;;;;;0.10;0.10;;;14.20;99.90;;;;;;4147211;28;20174;-56
2024/03/15 05:01:17;;;;;;;0.35;0.08;;;14.20;99.90;;;;;;4163979;28;20045;-59
2024/03/15 05:03:19;;;;;;;0.13;0.10;;;14.20;99.90;;;;;;4162842;28;20167;-57
2024/03/15 05:05:21;;;;;;;0.08;0.08;;;14.20;99.90;;;;;;4163285;28;20037;-56
2024/03/15 05:07:24;;;;;;;1.33;0.43;;;14.20;99.90;;;;;;4162913;28;20052;-61
2024/03/15 05:09:27;;;;;;;0.30;0.15;;;14.20;99.90;;;;;;4146207;28;20198;-61
2024/03/15 05:11:29;;;;;;;0.10;0.10;;;14.20;99.90;;;;;;4162924;28;20051;-55
2024/03/15 05:13:31;;;;;;;0.10;0.10;;;14.20;99.90;;;;;;4162709;28;20128;-55
2024/03/15 05:15:34;;;;;;;0.10;0.10;;;14.20;99.90;;;;;;4162854;28;20060;-56
2024/03/15 05:17:36;;;;;;;0.20;0.20;;;14.20;99.90;;;;;;4163086;28;20056;-55
2024/03/15 05:19:38;;;;;;;0.25;0.10;;;14.20;99.90;;;;;;4162787;28;20041;-55
2024/03/15 05:21:41;;;;;;;0.95;0.30;;;14.20;99.90;;;;;;4162880;28;20076;-55
2024/03/15 05:23:43;;;;;;;0.15;0.10;;;14.20;99.90;;;;;;4146332;28;20056;-54
2024/03/15 05:25:45;;;;;;;0.17;0.10;;;14.20;99.90;;;;;;4162939;28;20067;-56
2024/03/15 05:27:51;;;;;;;0.00;0.00;;;14.20;99.90;;;;;;4147510;28;20148;-57
2024/03/15 05:29:54;;;;;;;0.10;0.10;;;14.10;99.90;;;;;;4164201;28;20053;-57
2024/03/15 05:31:56;;;;;;;0.10;0.10;;;14.10;99.90;;;;;;4163010;28;20052;-60
2024/03/15 05:33:58;;;;;;;0.10;0.08;;;14.20;99.90;;;;;;4162620;28;20057;-55
2024/03/15 05:36:01;;;;;;;0.00;0.00;;;14.20;99.90;;;;;;4162859;28;20045;-56
2024/03/15 05:38:03;;;;;;;0.10;0.10;;;14.10;99.90;;;;;;4162235;28;20116;-55
2024/03/15 05:40:06;;;;;;;0.22;0.08;;;14.10;99.90;;;;;;4162517;28;20041;-55
2024/03/15 05:42:09;;;;;;;0.00;0.00;;;14.10;99.90;;;;;;4163927;28;20049;-62
2024/03/15 05:44:11;;;;;;;0.20;0.17;;;14.20;99.90;;;;;;4163704;28;20080;-62
2024/03/15 05:46:13;;;;;;;0.22;0.20;;;14.20;99.90;;;;;;4163466;28;20045;-55
2024/03/15 05:48:16;;;;;;;1.67;0.70;;;14.20;99.90;;;;;;4162527;28;20049;-55
2024/03/15 05:50:20;;;;;;;0.13;0.10;;;14.20;99.90;;;;;;4165183;28;20053;-55
2024/03/15 05:52:23;;;;;;;0.10;0.10;;;14.20;99.90;;;;;;4165325;28;20053;-56
2024/03/15 05:54:25;;;;;;;0.80;0.20;;;14.20;99.90;;;;;;4165929;28;20483;-56
2024/03/15 05:56:27;;;;;;;0.00;0.00;;;14.20;99.90;;;;;;4165522;28;20215;-56
2024/03/15 05:58:29;;;;;;;0.95;0.50;;;14.20;99.90;;;;;;4165760;28;20057;-59
2024/03/15 06:00:33;;;;;;;0.38;0.10;;;14.20;99.90;;;;;;4149458;28;20050;-55
2024/03/15 06:02:36;;;;;;;0.10;0.10;;;14.10;99.90;;;;;;4165722;28;20076;-56
2024/03/15 06:04:38;;;;;;;0.30;0.28;;;14.20;99.90;;;;;;4165956;28;20054;-61
2024/03/15 06:06:40;;;;;;;0.00;0.00;;;14.10;99.90;;;;;;4165301;28;20067;-56
2024/03/15 06:08:43;;;;;;;1.85;0.20;;;14.10;99.90;;;;;;4165527;28;20107;-55
2024/03/15 06:10:45;;;;;;;0.38;0.20;;;14.10;99.90;;;;;;4165199;28;20251;-55
2024/03/15 06:12:50;;;;;;;0.45;0.10;;;14.10;99.90;;;;;;4165472;28;20049;-56
2024/03/15 06:14:52;;;;;;;0.20;0.20;;;14.10;99.90;;;;;;4149156;28;20412;-55
2024/03/15 06:16:55;;;;;;;0.25;0.10;;;14.10;99.90;;;;;;4149222;28;20045;-55
2024/03/15 06:18:57;;;;;;;2.20;0.22;;;14.10;99.90;;;;;;4165581;28;20539;-56
2024/03/15 06:21:00;;;;;;;0.20;0.10;;;14.10;99.90;;;;;;4165023;28;20049;-56
2024/03/15 06:23:02;;;;;;;0.28;0.10;;;14.20;99.90;;;;;;4165643;28;20069;-56
2024/03/15 06:25:05;;;;;;;0.10;0.00;;;14.20;99.90;;;;;;4165221;28;20073;-56
2024/03/15 06:27:13;;;;;;;0.10;0.10;;;14.20;99.90;;;;;;4165140;28;20057;-55
2024/03/15 06:29:16;;;;;;;0.20;0.20;;;14.20;99.90;;;;;;4165210;28;20481;-55
2024/03/15 06:31:18;;;;;;;0.22;0.20;;;14.20;99.90;;;;;;4165367;28;20128;-56
2024/03/15 06:33:22;;;;;;;0.08;0.08;;;14.20;99.90;;;;;;4164785;28;20054;-57
2024/03/15 06:35:28;;;;;;;0.10;0.10;;;14.20;99.90;;;;;;4165163;28;20572;-56
2024/03/15 06:37:30;;;;;;;0.30;0.30;;;14.20;99.90;;;;;;4165130;28;20046;-55
2024/03/15 06:41:40;;;;;;;2.05;0.30;;;14.20;99.90;;;;;;4165187;28;20041;-56
2024/03/15 06:43:47;;;;;;;0.13;0.10;;;14.20;99.90;;;;;;4165168;28;20061;-62
2024/03/15 06:48:02;;;;;;;1.27;0.20;;;14.20;99.90;;;;;;4165504;28;20069;-57
2024/03/15 06:52:34;;;;;;;0.32;0.10;;;14.20;99.90;;;;;;4165361;28;20045;-60
2024/03/15 06:54:38;;;;;;;0.52;0.30;;;14.20;99.90;;;;;;4165162;28;20053;-56
2024/03/15 06:56:43;;;;;;;0.35;0.20;;;14.20;99.90;;;;;;4164738;28;20053;-55
2024/03/15 06:58:45;;;;;;;0.75;0.65;;;14.20;99.90;;;;;;4165035;28;20190;-57
2024/03/15 07:00:48;;;;;;;0.70;0.70;;;14.20;99.90;;;;;;4163787;28;20432;-55
2024/03/15 07:02:50;;;;;;;1.40;0.20;;;14.20;99.90;;;;;;4164731;28;20057;-56
2024/03/15 07:04:53;;;;;;;0.57;0.30;;;14.30;99.90;;;;;;4164428;28;20077;-55
2024/03/15 07:06:55;;;;;;;0.55;0.10;;;14.30;99.90;;;;;;4164648;28;20037;-54
2024/03/15 07:08:57;;;;;;;2.20;0.35;;;14.30;99.90;;;;;;4164529;28;20057;-57
2024/03/15 07:10:59;;;;;;;1.10;0.30;;;14.30;99.90;;;;;;4164617;28;20128;-56
2024/03/15 07:13:02;;;;;;;1.75;0.15;;;14.40;99.90;;;;;;4164699;28;20049;-55
2024/03/15 07:15:06;;;;;;;3.92;1.23;;;14.40;99.90;;;;;;4165460;28;20049;-57
2024/03/15 07:17:11;;;;;;;0.63;0.20;;;14.40;99.90;;;;;;4166001;28;20156;-57
2024/03/15 07:19:15;;;;;;;1.02;0.50;;;14.40;99.90;;;;;;4164551;28;20432;-55
2024/03/15 07:21:18;;;;;;;1.05;0.55;;;14.50;99.90;;;;;;4164557;28;20499;-55
2024/03/15 07:23:21;;;;;;;0.55;0.20;;;14.50;99.90;;;;;;4164389;28;20072;-58
2024/03/15 07:25:24;;;;;;;1.08;0.30;;;14.50;99.90;;;;;;4164317;28;20135;-59
2024/03/15 07:27:26;;;;;;;0.43;0.20;;;14.50;99.90;;;;;;4164226;28;20046;-56
2024/03/15 07:29:28;;;;;;;2.53;1.08;;;14.50;99.90;;;;;;4164175;28;20080;-55
2024/03/15 07:31:31;;;;;;;0.52;0.52;;;14.60;99.90;;;;;;4164579;28;20041;-58
2024/03/15 07:33:34;;;;;;;4.10;0.20;;;14.60;99.90;;;;;;4163420;28;20099;-57
2024/03/15 07:35:37;;;;;;;1.02;0.13;;;14.60;99.90;;;;;;4164123;28;20472;-56
2024/03/15 07:37:39;;;;;;;0.30;0.30;;;14.60;99.90;;;;;;4164493;28;20231;-55
2024/03/15 07:39:42;;;;;;;1.13;0.75;;;14.80;99.90;;;;;;4131727;28;20193;-56
2024/03/15 07:41:45;;;;;;;0.30;0.30;;;14.80;99.90;;;;;;4148378;28;20058;-57
2024/03/15 07:43:47;;;;;;;0.30;0.17;;;14.90;99.90;;;;;;4164523;28;20467;-59
2024/03/15 07:45:49;;;;;;;0.25;0.20;;;14.90;99.90;;;;;;4164307;28;20516;-56
2024/03/15 07:47:51;;;;;;;0.73;0.50;;;14.90;99.90;;;;;;4164074;28;20049;-56
2024/03/15 07:49:55;;;;;;;0.73;0.22;;;15.00;99.90;;;;;;4163907;28;20288;-55
2024/03/15 07:51:58;;;;;;;2.08;0.30;;;14.90;99.90;;;;;;4164082;28;20092;-56
2024/03/15 07:54:00;;;;;;;0.68;0.63;;;14.80;99.90;;;;;;4163967;28;20073;-59
2024/03/15 07:56:04;;;;;;;2.33;0.20;;;14.80;99.90;;;;;;4163877;28;20077;-57
2024/03/15 07:58:06;;;;;;;0.63;0.30;;;14.80;99.90;;;;;;4147563;28;20050;-56
2024/03/15 08:00:14;;;;;;;4.38;0.65;;;14.80;99.90;;;;;;4147650;28;20049;-58
2024/03/15 08:02:16;;;;;;;0.57;0.30;;;14.80;99.90;;;;;;4163849;28;20046;-56
2024/03/15 08:04:18;;;;;;;4.68;1.33;;;14.70;99.90;;;;;;4163253;28;20045;-56
2024/03/15 08:06:21;;;;;;;0.70;0.30;;;14.80;99.90;;;;;;4164087;28;20053;-57
2024/03/15 08:08:24;;;;;;;1.35;0.28;;;14.80;99.90;;;;;;4163562;28;20050;-58
2024/03/15 08:10:26;;;;;;;0.57;0.40;;;14.70;99.90;;;;;;4163446;28;20421;-56
2024/03/15 08:12:29;;;;;;;0.90;0.50;;;14.80;99.90;;;;;;4163711;28;20479;-55
2024/03/15 08:14:32;;;;;;;0.32;0.30;;;14.80;99.90;;;;;;4163922;28;20089;-56
2024/03/15 08:16:35;;;;;;;2.25;0.50;;;14.90;99.90;;;;;;4163829;28;20119;-55
2024/03/15 08:18:37;;;;;;;0.22;0.20;;;14.90;99.90;;;;;;4164257;28;20099;-56
2024/03/15 08:20:40;;;;;;;0.10;0.10;;;14.80;99.90;;;;;;4165333;28;20055;-56
2024/03/15 08:22:42;;;;;;;1.50;0.90;;;14.90;99.90;;;;;;4164253;28;20485;-56
2024/03/15 08:24:45;;;;;;;0.88;0.60;;;14.90;99.90;;;;;;4163267;28;20057;-56
2024/03/15 08:26:47;;;;;;;1.33;0.52;;;14.90;99.90;;;;;;4163671;28;20096;-56
2024/03/15 08:28:49;;;;;;;1.98;0.55;;;15.00;99.90;;;;;;4163234;28;20490;-55
2024/03/15 08:30:52;;;;;;;2.80;0.40;;;15.00;99.90;;;;;;4163245;28;20103;-55
2024/03/15 08:32:54;;;;;;;1.40;0.75;;;15.00;99.90;;;;;;4162966;28;20049;-56
2024/03/15 08:34:57;;;;;;;2.40;1.77;;;15.00;99.90;;;;;;4163049;28;20037;-55
2024/03/15 08:36:59;;;;;;;1.38;0.75;;;15.00;99.90;;;;;;4162304;28;20060;-55
2024/03/15 08:39:03;;;;;;;4.88;1.17;;;15.10;99.90;;;;;;4126607;28;20046;-54
2024/03/15 08:41:06;;;;;;;0.28;0.20;;;15.10;99.90;;;;;;4146375;28;20477;-56
2024/03/15 08:43:10;;;;;;;5.47;0.45;;;15.20;99.90;;;;;;4163017;28;20477;-55
2024/03/15 08:45:14;;;;;;;1.25;0.30;;;15.10;99.90;;;;;;4146738;28;20563;-55
2024/03/15 08:47:18;;;;;;;3.45;0.40;;;15.10;99.90;;;;;;4162977;28;20045;-55
2024/03/15 08:49:20;;;;;;;0.45;0.25;;;15.10;99.90;;;;;;4147574;28;20046;-59
2024/03/15 08:51:23;;;;;;;0.45;0.20;;;15.20;99.90;;;;;;4146702;28;20476;-56
2024/03/15 08:53:26;;;;;;;2.10;0.50;;;15.20;99.90;;;;;;4146515;28;20049;-54
2024/03/15 08:55:28;;;;;;;0.32;0.22;;;15.30;99.90;;;;;;4142121;28;20054;-55
2024/03/15 08:57:30;;;;;;;5.18;1.00;;;15.30;99.90;;;;;;4159567;28;20042;-57
2024/03/15 08:59:34;;;;;;;0.47;0.28;;;15.40;99.90;;;;;;4147138;28;20521;-56
2024/03/15 09:01:37;;;;;;;0.90;0.47;;;15.40;99.90;;;;;;4146359;28;20042;-54
2024/03/15 09:03:40;;;;;;;2.03;0.85;;;15.50;99.90;;;;;;4146684;28;20042;-55
2024/03/15 09:05:46;;;;;;;0.73;0.30;;;15.50;99.90;;;;;;4159507;28;20103;-58
2024/03/15 09:07:48;;;;;;;0.52;0.38;;;15.60;99.90;;;;;;4137266;28;20484;-55
2024/03/15 09:09:50;;;;;;;3.40;0.50;;;15.80;99.90;;;;;;4145808;28;20058;-58
2024/03/15 09:11:53;;;;;;;1.02;0.40;;;15.90;99.90;;;;;;4135019;28;20049;-55
2024/03/15 09:13:57;;;;;;;2.03;0.40;;;15.90;99.90;;;;;;4144404;28;20050;-54
2024/03/15 09:15:59;;;;;;;0.90;0.37;;;15.80;99.90;;;;;;4157638;28;20049;-55
2024/03/15 09:18:01;;;;;;;0.60;0.30;;;15.90;99.90;;;;;;4166971;28;20466;-55
2024/03/15 09:20:18;;;;;;;2.38;0.43;;;16.00;99.90;;;;;;4161552;28;20386;-55
2024/03/15 09:22:21;;;;;;;2.75;0.95;;;16.10;99.90;;;;;;4160105;28;20156;-55
2024/03/15 09:24:24;;;;;;;1.08;0.55;;;16.10;99.90;;;;;;4178237;28;20562;-56
2024/03/15 09:26:27;;;;;;;1.77;0.50;;;16.20;99.90;;;;;;4169965;28;20528;-56
2024/03/15 09:28:33;;;;;;;0.30;0.30;;;16.20;99.90;;;;;;4152776;28;20068;-55
2024/03/15 09:30:53;;;;;;;5.05;1.20;;;16.20;99.90;;;;;;4161954;28;20052;-55
2024/03/15 09:33:11;;;;;;;1.05;0.52;;;16.30;99.90;;;;;;4154949;28;20092;-55
2024/03/15 09:35:14;;;;;;;0.73;0.40;;;16.20;99.90;;;;;;4157630;28;20068;-55
2024/03/15 09:37:19;;;;;;;0.40;0.32;;;16.10;99.90;;;;;;4145006;28;20046;-55
2024/03/15 09:39:23;;;;;;;1.13;0.30;;;16.10;99.90;;;;;;4145045;28;20054;-55
2024/03/15 09:41:27;;;;;;;0.40;0.40;;;16.00;99.90;;;;;;4161287;28;20072;-56
2024/03/15 09:43:30;;;;;;;3.35;0.30;;;16.00;99.90;;;;;;4145598;28;20096;-55
2024/03/15 09:45:33;;;;;;;5.28;1.10;;;16.00;99.90;;;;;;4161119;28;20049;-55
2024/03/15 09:47:37;;;;;;;0.82;0.30;;;15.90;99.90;;;;;;4159927;28;20067;-55
2024/03/15 09:49:42;;;;;;;3.35;0.98;;;16.10;99.90;;;;;;4159029;28;20038;-57
2024/03/15 09:51:45;;;;;;;2.08;0.47;;;16.20;99.90;;;;;;4160776;28;20056;-56
2024/03/15 09:53:47;;;;;;;1.85;1.17;;;16.30;99.90;;;;;;4145228;28;20046;-55
2024/03/15 09:55:52;;;;;;;1.70;0.70;;;16.30;99.90;;;;;;4161437;28;20069;-56
2024/03/15 09:57:55;;;;;;;0.50;0.30;;;16.20;99.90;;;;;;4145626;28;20049;-56
2024/03/15 09:59:59;;;;;;;0.73;0.20;;;16.20;99.90;;;;;;4162180;28;20056;-55
2024/03/15 10:02:02;;;;;;;0.50;0.30;;;16.30;99.90;;;;;;4140368;28;20077;-55
2024/03/15 10:04:05;;;;;;;0.55;0.40;;;16.40;99.90;;;;;;4145435;28;20104;-54
2024/03/15 10:06:09;;;;;;;1.67;0.40;;;16.70;99.90;;;;;;4135516;28;20046;-55
2024/03/15 10:08:12;;;;;;;2.38;1.05;;;16.80;99.90;;;;;;4145597;28;20121;-57
2024/03/15 10:10:16;;;;;;;1.02;0.55;;;16.90;99.90;;;;;;4153418;28;20062;-55
2024/03/15 10:12:19;;;;;;;0.35;0.25;;;16.90;99.90;;;;;;4161475;28;20397;-55
2024/03/15 10:14:21;;;;;;;0.50;0.40;;;17.00;99.90;;;;;;4156070;28;20046;-55
2024/03/15 10:16:24;;;;;;;6.50;1.00;;;17.10;99.90;;;;;;4152593;28;20050;-55
2024/03/15 10:18:26;;;;;;;1.83;0.28;;;17.00;99.90;;;;;;4156671;28;20061;-55
2024/03/15 10:20:32;;;;;;;2.42;0.40;;;17.20;99.90;;;;;;4154692;28;20412;-56
2024/03/15 10:22:34;;;;;;;1.30;0.30;;;17.30;99.90;;;;;;4161582;28;20050;-55
2024/03/15 10:24:38;;;;;;;1.33;0.60;;;17.40;99.80;;;;;;4145418;28;20565;-55
2024/03/15 10:26:42;;;;;;;2.15;0.60;;;17.40;99.90;;;;;;4161757;28;20049;-55
2024/03/15 10:28:45;;;;;;;0.95;0.30;;;17.40;99.30;;;;;;4157648;28;20104;-55
2024/03/15 10:30:47;;;;;;;1.17;0.60;;;17.50;99.70;;;;;;4136468;28;20044;-55
2024/03/15 10:32:50;;;;;;;1.23;0.57;;;17.50;98.90;;;;;;4157828;28;20049;-55
2024/03/15 10:34:52;;;;;;;0.82;0.30;;;17.70;99.00;;;;;;4160702;28;20133;-55
2024/03/15 10:36:55;;;;;;;1.30;0.60;;;17.90;98.60;;;;;;4147726;28;20136;-58
2024/03/15 10:38:57;;;;;;;1.55;0.63;;;17.90;98.40;;;;;;4148629;28;20128;-57
2024/03/15 10:41:00;;;;;;;0.70;0.40;;;18.00;98.10;;;;;;4146471;28;20433;-55
2024/03/15 10:43:02;;;;;;;2.90;1.15;;;18.00;97.80;;;;;;4148394;28;20046;-56
2024/03/15 10:45:05;;;;;;;0.65;0.40;;;17.90;97.90;;;;;;4146680;28;20074;-58
2024/03/15 10:47:08;;;;;;;3.35;0.40;;;17.90;97.60;;;;;;4148109;28;20050;-54